createdAt,value
2018-06-21T00:00:10.554Z,19.05
2018-06-21T00:02:37.691Z,19.08
2018-06-21T00:05:04.723Z,19.11
2018-06-21T00:07:31.659Z,19.14
2018-06-21T00:09:58.698Z,19.18
2018-06-21T00:12:25.654Z,19.22
2018-06-21T00:14:52.663Z,19.28
2018-06-21T00:17:19.672Z,19.33
2018-06-21T00:19:46.610Z,19.39
2018-06-21T00:22:13.548Z,19.44
2018-06-21T00:24:40.456Z,19.47
2018-06-21T00:27:07.419Z,19.50
2018-06-21T00:29:34.330Z,19.51
2018-06-21T00:32:01.268Z,19.51
2018-06-21T00:34:28.203Z,19.50
2018-06-21T00:36:55.115Z,19.50
2018-06-21T00:39:22.091Z,19.49
2018-06-21T00:41:49.118Z,19.49
2018-06-21T00:44:16.015Z,19.49
2018-06-21T00:46:42.919Z,19.52
2018-06-21T00:49:09.874Z,19.53
2018-06-21T00:51:37.019Z,19.54
2018-06-21T00:54:04.205Z,19.55
2018-06-21T00:56:31.146Z,19.55
2018-06-21T00:58:58.066Z,19.50
2018-06-21T01:01:25.050Z,19.44
2018-06-21T01:03:51.983Z,19.42
2018-06-21T01:06:18.913Z,19.39
2018-06-21T01:08:45.863Z,19.36
2018-06-21T01:11:13.143Z,19.33
2018-06-21T01:13:40.170Z,19.32
2018-06-21T01:16:07.086Z,19.30
2018-06-21T01:18:34.359Z,19.28
2018-06-21T01:21:01.319Z,19.24
2018-06-21T01:23:28.301Z,19.21
2018-06-21T01:25:55.207Z,19.19
2018-06-21T01:28:22.243Z,19.16
2018-06-21T01:30:49.212Z,19.14
2018-06-21T01:33:16.129Z,19.12
2018-06-21T01:35:43.135Z,19.10
2018-06-21T01:38:10.060Z,19.08
2018-06-21T01:40:36.975Z,19.07
2018-06-21T01:43:03.994Z,19.04
2018-06-21T01:45:30.931Z,19.01
2018-06-21T01:47:57.975Z,18.99
2018-06-21T01:50:24.940Z,18.95
2018-06-21T01:52:51.907Z,18.92
2018-06-21T01:55:19.331Z,18.89
2018-06-21T01:57:46.235Z,18.86
2018-06-21T02:00:13.188Z,18.85
2018-06-21T02:02:40.143Z,18.84
2018-06-21T02:05:07.066Z,18.84
2018-06-21T02:07:33.983Z,18.83
2018-06-21T02:10:00.935Z,18.82
2018-06-21T02:12:28.055Z,18.81
2018-06-21T02:14:55.012Z,18.81
2018-06-21T02:17:22.055Z,18.78
2018-06-21T02:19:49.030Z,18.76
2018-06-21T02:22:15.984Z,18.75
2018-06-21T02:24:42.919Z,18.75
2018-06-21T02:27:09.842Z,18.75
2018-06-21T02:29:36.763Z,18.74
2018-06-21T02:32:03.735Z,18.76
2018-06-21T02:34:30.655Z,18.73
2018-06-21T02:36:57.580Z,18.72
2018-06-21T02:39:24.516Z,18.73
2018-06-21T02:41:51.434Z,18.73
2018-06-21T02:44:18.390Z,18.74
2018-06-21T02:46:45.435Z,18.74
2018-06-21T02:49:12.692Z,18.74
2018-06-21T02:51:39.636Z,18.77
2018-06-21T02:54:06.587Z,18.79
2018-06-21T02:56:33.527Z,18.79
2018-06-21T02:59:00.475Z,18.81
2018-06-21T03:01:27.388Z,18.83
2018-06-21T03:03:54.927Z,18.84
2018-06-21T03:06:21.759Z,18.87
2018-06-21T03:08:48.872Z,18.88
2018-06-21T03:11:15.796Z,18.91
2018-06-21T03:13:42.727Z,18.93
2018-06-21T03:16:09.659Z,18.95
2018-06-21T03:18:36.571Z,18.96
2018-06-21T03:21:03.499Z,18.95
2018-06-21T03:23:30.448Z,19.00
2018-06-21T03:25:57.392Z,19.00
2018-06-21T03:28:24.379Z,19.01
2018-06-21T03:30:51.460Z,19.03
2018-06-21T03:33:18.382Z,19.04
2018-06-21T03:35:45.667Z,19.04
2018-06-21T03:38:12.655Z,19.04
2018-06-21T03:40:39.615Z,19.03
2018-06-21T03:43:06.527Z,19.05
2018-06-21T03:45:33.487Z,19.03
2018-06-21T03:48:00.426Z,19.03
2018-06-21T03:50:27.395Z,19.00
2018-06-21T03:52:54.299Z,18.97
2018-06-21T03:55:21.303Z,18.88
2018-06-21T03:57:48.204Z,18.74
2018-06-21T04:00:15.131Z,18.63
2018-06-21T04:02:42.061Z,18.54
2018-06-21T04:05:09.059Z,18.45
2018-06-21T04:07:35.990Z,18.39
2018-06-21T04:10:03.011Z,18.31
2018-06-21T04:12:29.955Z,18.31
2018-06-21T04:15:00.200Z,18.28
2018-06-21T04:17:27.527Z,18.28
2018-06-21T04:19:54.427Z,18.31
2018-06-21T04:22:21.339Z,18.33
2018-06-21T04:24:48.259Z,18.33
2018-06-21T04:27:15.171Z,18.30
2018-06-21T04:29:42.170Z,18.26
2018-06-21T04:32:09.119Z,18.15
2018-06-21T04:34:36.118Z,18.11
2018-06-21T04:37:03.062Z,18.09
2018-06-21T04:39:30.032Z,18.03
2018-06-21T04:41:57.255Z,18.03
2018-06-21T04:44:24.264Z,17.98
2018-06-21T04:46:51.156Z,18.02
2018-06-21T04:49:18.099Z,18.01
2018-06-21T04:51:45.027Z,18.01
2018-06-21T04:54:12.163Z,18.05
2018-06-21T04:56:39.771Z,18.00
2018-06-21T04:59:06.687Z,17.90
2018-06-21T05:01:33.627Z,17.80
2018-06-21T05:04:00.552Z,17.77
2018-06-21T05:06:27.779Z,17.68
2018-06-21T05:08:54.738Z,17.50
2018-06-21T05:11:22.263Z,17.42
2018-06-21T05:13:49.259Z,17.33
2018-06-21T05:16:16.251Z,17.26
2018-06-21T05:18:43.188Z,17.27
2018-06-21T05:21:10.103Z,17.22
2018-06-21T05:23:37.790Z,17.10
2018-06-21T05:26:04.910Z,17.02
2018-06-21T05:28:31.897Z,16.94
2018-06-21T05:30:58.860Z,16.90
2018-06-21T05:33:25.769Z,16.88
2018-06-21T05:35:52.731Z,16.84
2018-06-21T05:38:19.655Z,16.87
2018-06-21T05:40:46.643Z,16.91
2018-06-21T05:43:13.593Z,16.95
2018-06-21T05:45:40.527Z,16.96
2018-06-21T05:48:07.479Z,16.99
2018-06-21T05:50:34.739Z,16.87
2018-06-21T05:53:01.840Z,16.81
2018-06-21T05:55:29.939Z,16.74
2018-06-21T05:57:56.886Z,16.70
2018-06-21T06:00:23.823Z,16.75
2018-06-21T06:02:50.972Z,16.70
2018-06-21T06:05:18.115Z,16.74
2018-06-21T06:07:45.028Z,16.60
2018-06-21T06:10:12.020Z,16.53
2018-06-21T06:12:38.931Z,16.51
2018-06-21T06:15:05.891Z,16.59
2018-06-21T06:17:32.891Z,16.54
2018-06-21T06:20:00.755Z,16.64
2018-06-21T06:22:27.723Z,16.70
2018-06-21T06:24:54.656Z,16.82
2018-06-21T06:27:21.587Z,16.84
2018-06-21T06:29:48.523Z,16.86
2018-06-21T06:32:15.623Z,16.86
2018-06-21T06:34:42.633Z,16.86
2018-06-21T06:37:09.714Z,16.86
2018-06-21T06:39:36.650Z,16.86
2018-06-21T06:42:03.575Z,16.89
2018-06-21T06:44:30.567Z,16.86
2018-06-21T06:46:57.507Z,16.85
2018-06-21T06:49:24.459Z,16.82
2018-06-21T06:51:51.431Z,16.78
2018-06-21T06:54:18.387Z,16.70
2018-06-21T06:56:45.315Z,16.68
2018-06-21T06:59:12.244Z,16.73
2018-06-21T07:01:39.183Z,16.78
2018-06-21T07:04:06.183Z,16.85
2018-06-21T07:06:33.236Z,16.90
2018-06-21T07:09:00.175Z,16.88
2018-06-21T07:11:27.976Z,16.87
2018-06-21T07:13:55.655Z,16.79
2018-06-21T07:16:22.994Z,16.78
2018-06-21T07:18:49.976Z,17.00
2018-06-21T07:21:16.904Z,17.18
2018-06-21T07:23:43.879Z,17.08
2018-06-21T07:26:10.824Z,17.09
2018-06-21T07:28:37.787Z,17.09
2018-06-21T07:31:04.935Z,17.08
2018-06-21T07:33:31.928Z,17.03
2018-06-21T07:35:58.861Z,17.04
2018-06-21T07:38:25.801Z,17.05
2018-06-21T07:40:52.720Z,17.11
2018-06-21T07:43:19.635Z,17.17
2018-06-21T07:45:46.539Z,17.22
2018-06-21T07:48:13.487Z,17.31
2018-06-21T07:50:40.459Z,17.40
2018-06-21T07:53:07.387Z,17.48
2018-06-21T07:55:34.303Z,17.60
2018-06-21T07:58:01.267Z,17.65
2018-06-21T08:00:28.211Z,17.71
2018-06-21T08:02:55.148Z,17.71
2018-06-21T08:05:22.143Z,17.74
2018-06-21T08:07:49.126Z,17.77
2018-06-21T08:10:16.334Z,17.83
2018-06-21T08:12:43.571Z,17.91
2018-06-21T08:15:10.494Z,17.89
2018-06-21T08:17:37.892Z,17.90
2018-06-21T08:20:04.898Z,17.91
2018-06-21T08:22:31.929Z,17.76
2018-06-21T08:24:58.843Z,17.80
2018-06-21T08:27:25.779Z,17.80
2018-06-21T08:29:52.878Z,17.80
2018-06-21T08:32:19.855Z,17.81
2018-06-21T08:34:47.122Z,17.84
2018-06-21T08:37:14.060Z,17.90
2018-06-21T08:39:41.003Z,17.99
2018-06-21T08:42:07.959Z,18.11
2018-06-21T08:44:34.927Z,18.23
2018-06-21T08:47:02.559Z,18.29
2018-06-21T08:49:29.491Z,18.29
2018-06-21T08:51:56.455Z,18.26
2018-06-21T08:54:23.395Z,18.19
2018-06-21T08:56:50.315Z,18.15
2018-06-21T08:59:17.256Z,18.05
2018-06-21T09:01:44.179Z,18.12
2018-06-21T09:04:11.187Z,18.24
2018-06-21T09:06:38.127Z,18.36
2018-06-21T09:09:07.119Z,18.54
2018-06-21T09:11:34.195Z,18.71
2018-06-21T09:14:01.179Z,18.78
2018-06-21T09:16:28.115Z,18.89
2018-06-21T09:18:55.087Z,18.98
2018-06-21T09:21:22.071Z,19.09
2018-06-21T09:23:49.066Z,19.25
2018-06-21T09:26:15.975Z,19.42
2018-06-21T09:28:43.049Z,19.54
2018-06-21T09:31:09.975Z,19.57
2018-06-21T09:33:37.159Z,19.48
2018-06-21T09:36:04.271Z,19.37
2018-06-21T09:38:36.832Z,19.33
2018-06-21T09:41:09.619Z,19.25
2018-06-21T09:43:50.300Z,19.19
2018-06-21T09:46:14.985Z,19.08
2018-06-21T09:48:49.355Z,18.98
2018-06-21T09:51:17.071Z,18.88
2018-06-21T09:53:44.023Z,18.86
2018-06-21T09:56:10.951Z,18.87
2018-06-21T09:58:37.995Z,18.76
2018-06-21T10:01:04.943Z,18.68
2018-06-21T10:03:32.656Z,18.65
2018-06-21T10:05:59.640Z,18.76
2018-06-21T10:08:26.767Z,19.09
2018-06-21T10:10:53.712Z,19.42
2018-06-21T10:13:20.643Z,19.55
2018-06-21T10:15:47.645Z,19.77
2018-06-21T10:18:14.655Z,19.84
2018-06-21T10:20:41.891Z,19.84
2018-06-21T10:23:08.855Z,19.46
2018-06-21T10:25:35.966Z,18.27
2018-06-21T10:28:03.166Z,17.27
2018-06-21T10:30:30.163Z,16.59
2018-06-21T10:32:57.087Z,16.06
2018-06-21T10:35:24.015Z,15.73
2018-06-21T10:37:51.063Z,15.54
2018-06-21T10:40:18.011Z,15.48
2018-06-21T10:42:45.004Z,15.35
2018-06-21T10:45:12.075Z,15.37
2018-06-21T10:47:38.999Z,15.35
2018-06-21T10:50:06.059Z,15.41
2018-06-21T10:52:33.228Z,15.45
2018-06-21T10:55:00.267Z,15.58
2018-06-21T10:57:27.191Z,15.70
2018-06-21T10:59:54.226Z,15.75
2018-06-21T11:02:21.215Z,15.80
2018-06-21T11:04:48.151Z,15.84
2018-06-21T11:07:15.065Z,15.90
2018-06-21T11:09:42.031Z,15.94
2018-06-21T11:12:08.951Z,15.95
2018-06-21T11:14:35.895Z,15.92
2018-06-21T11:17:03.032Z,15.77
2018-06-21T11:19:29.947Z,15.73
2018-06-21T11:21:57.239Z,15.71
2018-06-21T11:24:24.198Z,15.71
2018-06-21T11:26:51.247Z,15.67
2018-06-21T11:29:18.171Z,15.57
2018-06-21T11:31:45.148Z,15.52
2018-06-21T11:34:12.211Z,15.54
2018-06-21T11:36:39.247Z,15.43
2018-06-21T11:39:07.403Z,15.20
2018-06-21T11:41:34.443Z,15.18
2018-06-21T11:44:01.359Z,15.15
2018-06-21T11:46:28.319Z,15.26
2018-06-21T11:48:55.251Z,15.22
2018-06-21T11:51:22.331Z,15.42
2018-06-21T11:53:49.271Z,15.61
2018-06-21T11:56:16.196Z,15.80
2018-06-21T11:58:43.123Z,16.01
2018-06-21T12:01:10.536Z,16.44
2018-06-21T12:03:37.471Z,16.66
2018-06-21T12:06:04.518Z,16.79
2018-06-21T12:08:31.436Z,16.68
2018-06-21T12:10:58.422Z,16.64
2018-06-21T12:13:25.339Z,16.48
2018-06-21T12:15:52.572Z,16.55
2018-06-21T12:18:19.515Z,16.57
2018-06-21T12:20:46.464Z,16.73
2018-06-21T12:23:13.378Z,16.83
2018-06-21T12:25:40.503Z,16.89
2018-06-21T12:28:07.411Z,16.82
2018-06-21T12:30:34.420Z,16.83
2018-06-21T12:33:01.422Z,16.83
2018-06-21T12:35:28.431Z,16.94
2018-06-21T12:37:55.384Z,17.20
2018-06-21T12:40:22.578Z,17.33
2018-06-21T12:42:49.507Z,17.16
2018-06-21T12:45:16.407Z,17.18
2018-06-21T12:47:43.395Z,17.15
2018-06-21T12:50:10.327Z,16.88
2018-06-21T12:52:37.249Z,16.71
2018-06-21T12:55:04.239Z,16.47
2018-06-21T12:57:31.176Z,16.40
2018-06-21T12:59:58.127Z,16.24
2018-06-21T13:02:25.074Z,16.34
2018-06-21T13:04:52.091Z,16.43
2018-06-21T13:07:19.019Z,16.56
2018-06-21T13:09:57.463Z,17.04
2018-06-21T13:12:36.999Z,17.23
2018-06-21T13:15:04.551Z,17.18
2018-06-21T13:17:31.844Z,17.38
2018-06-21T13:19:59.931Z,17.15
2018-06-21T13:22:27.253Z,17.04
2018-06-21T13:24:54.174Z,16.63
2018-06-21T13:27:21.392Z,16.44
2018-06-21T13:29:48.437Z,16.30
2018-06-21T13:32:15.479Z,16.13
2018-06-21T13:34:42.394Z,16.09
2018-06-21T13:37:09.385Z,16.33
2018-06-21T13:39:36.319Z,16.49
2018-06-21T13:42:03.757Z,16.73
2018-06-21T13:44:30.899Z,17.00
2018-06-21T13:46:57.896Z,17.04
2018-06-21T13:49:24.927Z,17.06
2018-06-21T13:51:51.943Z,17.04
2018-06-21T13:54:18.866Z,16.93
2018-06-21T13:56:46.971Z,16.76
2018-06-21T13:59:14.271Z,16.74
2018-06-21T14:01:41.176Z,16.72
2018-06-21T14:04:08.615Z,16.63
2018-06-21T14:06:35.801Z,16.59
2018-06-21T14:09:04.146Z,16.54
2018-06-21T14:11:31.111Z,16.43
2018-06-21T14:13:58.035Z,16.46
2018-06-21T14:16:25.604Z,16.61
2018-06-21T14:18:52.863Z,16.72
2018-06-21T14:21:20.722Z,16.69
2018-06-21T14:23:47.752Z,16.83
2018-06-21T14:26:14.769Z,17.06
2018-06-21T14:28:41.744Z,17.29
2018-06-21T14:31:08.678Z,17.47
2018-06-21T14:33:35.603Z,17.77
2018-06-21T14:36:02.520Z,17.96
2018-06-21T14:38:29.479Z,18.05
2018-06-21T14:40:56.423Z,18.06
2018-06-21T14:43:23.379Z,17.97
2018-06-21T14:45:50.375Z,17.63
2018-06-21T14:48:17.331Z,17.48
2018-06-21T14:50:44.302Z,17.49
2018-06-21T14:53:11.316Z,17.73
2018-06-21T14:55:38.215Z,17.83
2018-06-21T14:58:05.155Z,17.82
2018-06-21T15:00:32.078Z,17.55
2018-06-21T15:02:59.032Z,16.95
2018-06-21T15:05:26.068Z,16.70
2018-06-21T15:07:53.024Z,16.52
2018-06-21T15:10:19.951Z,16.35
2018-06-21T15:12:46.888Z,16.36
2018-06-21T15:15:13.831Z,16.46
2018-06-21T15:17:40.769Z,16.52
2018-06-21T15:20:07.739Z,16.36
2018-06-21T15:22:34.678Z,16.35
2018-06-21T15:25:01.814Z,16.23
2018-06-21T15:27:28.796Z,15.97
2018-06-21T15:29:55.743Z,15.82
2018-06-21T15:32:22.680Z,15.58
2018-06-21T15:34:49.603Z,15.41
2018-06-21T15:37:16.537Z,15.08
2018-06-21T15:39:43.467Z,14.79
2018-06-21T15:42:10.527Z,14.78
2018-06-21T15:44:37.459Z,14.88
2018-06-21T15:47:04.411Z,14.97
2018-06-21T15:49:31.331Z,15.15
2018-06-21T15:51:58.295Z,15.27
2018-06-21T15:54:25.198Z,15.33
2018-06-21T15:56:52.224Z,15.45
2018-06-21T15:59:19.168Z,15.48
2018-06-21T16:01:46.079Z,15.63
2018-06-21T16:04:13.067Z,15.80
2018-06-21T16:06:39.986Z,15.68
2018-06-21T16:09:08.071Z,15.67
2018-06-21T16:11:34.983Z,15.63
2018-06-21T16:14:02.075Z,15.68
2018-06-21T16:16:29.126Z,15.48
2018-06-21T16:18:56.048Z,15.43
2018-06-21T16:21:22.967Z,15.42
2018-06-21T16:23:49.892Z,15.33
2018-06-21T16:26:16.931Z,15.24
2018-06-21T16:28:43.979Z,15.12
2018-06-21T16:31:10.906Z,15.02
2018-06-21T16:33:37.888Z,14.98
2018-06-21T16:36:05.175Z,14.88
2018-06-21T16:38:32.236Z,14.84
2018-06-21T16:40:59.353Z,14.92
2018-06-21T16:43:26.287Z,15.01
2018-06-21T16:45:53.291Z,14.97
2018-06-21T16:48:20.327Z,15.08
2018-06-21T16:50:48.147Z,15.09
2018-06-21T16:53:15.129Z,15.24
2018-06-21T16:55:42.381Z,15.42
2018-06-21T16:58:09.415Z,15.58
2018-06-21T17:00:36.360Z,15.63
2018-06-21T17:03:03.363Z,15.54
2018-06-21T17:05:30.286Z,15.66
2018-06-21T17:07:57.223Z,15.75
2018-06-21T17:10:24.190Z,15.80
2018-06-21T17:12:51.131Z,15.74
2018-06-21T17:15:18.056Z,15.64
2018-06-21T17:17:45.024Z,15.61
2018-06-21T17:20:12.012Z,15.69
2018-06-21T17:22:38.927Z,15.75
2018-06-21T17:25:06.057Z,15.76
2018-06-21T17:27:33.043Z,15.79
2018-06-21T17:30:00.483Z,15.87
2018-06-21T17:32:27.408Z,16.05
2018-06-21T17:34:54.337Z,16.21
2018-06-21T17:37:21.318Z,16.35
2018-06-21T17:39:48.370Z,16.61
2018-06-21T17:42:15.278Z,16.71
2018-06-21T17:44:42.248Z,16.58
2018-06-21T17:47:09.299Z,16.70
2018-06-21T17:49:36.245Z,16.92
2018-06-21T17:52:03.207Z,17.12
2018-06-21T17:54:30.138Z,17.12
2018-06-21T17:56:57.076Z,17.26
2018-06-21T17:59:24.003Z,17.33
2018-06-21T18:01:50.927Z,17.33
2018-06-21T18:04:17.895Z,17.12
2018-06-21T18:06:44.819Z,16.94
2018-06-21T18:09:11.743Z,16.83
2018-06-21T18:11:38.635Z,16.94
2018-06-21T18:14:05.616Z,17.17
2018-06-21T18:16:32.551Z,17.31
2018-06-21T18:18:59.479Z,17.24
2018-06-21T18:21:26.375Z,17.25
2018-06-21T18:23:53.303Z,17.16
2018-06-21T18:26:20.267Z,17.08
2018-06-21T18:28:47.265Z,16.93
2018-06-21T18:31:14.274Z,16.72
2018-06-21T18:33:41.207Z,16.43
2018-06-21T18:36:08.135Z,16.24
2018-06-21T18:38:35.044Z,16.13
2018-06-21T18:41:01.983Z,16.15
2018-06-21T18:43:28.903Z,16.30
2018-06-21T18:45:55.853Z,16.21
2018-06-21T18:48:23.195Z,16.01
2018-06-21T18:50:50.171Z,15.79
2018-06-21T18:53:17.201Z,15.60
2018-06-21T18:55:44.526Z,15.48
2018-06-21T18:58:11.443Z,15.37
2018-06-21T19:00:38.380Z,15.27
2018-06-21T19:03:05.424Z,15.20
2018-06-21T19:05:32.375Z,15.22
2018-06-21T19:08:04.954Z,15.21
2018-06-21T19:10:37.783Z,15.20
2018-06-21T19:13:04.631Z,15.27
2018-06-21T19:15:31.600Z,15.29
2018-06-21T19:17:58.532Z,15.20
2018-06-21T19:20:25.454Z,14.99
2018-06-21T19:22:52.371Z,14.82
2018-06-21T19:25:19.306Z,14.69
2018-06-21T19:27:46.583Z,14.61
2018-06-21T19:30:13.515Z,14.55
2018-06-21T19:32:40.439Z,14.47
2018-06-21T19:35:07.383Z,14.35
2018-06-21T19:37:34.291Z,14.26
2018-06-21T19:40:01.227Z,14.23
2018-06-21T19:42:28.158Z,14.14
2018-06-21T19:44:55.091Z,14.08
2018-06-21T19:47:22.011Z,14.08
2018-06-21T19:49:48.919Z,14.04
2018-06-21T19:52:15.851Z,14.01
2018-06-21T19:54:42.779Z,13.98
2018-06-21T19:57:09.689Z,13.93
2018-06-21T19:59:36.607Z,13.84
2018-06-21T20:02:03.581Z,13.79
2018-06-21T20:04:30.739Z,13.78
2018-06-21T20:06:57.663Z,13.77
2018-06-21T20:09:24.639Z,13.77
2018-06-21T20:11:51.563Z,13.75
2018-06-21T20:14:18.536Z,13.76
2018-06-21T20:16:45.464Z,13.74
2018-06-21T20:19:17.062Z,13.66
2018-06-21T20:21:44.238Z,13.62
2018-06-21T20:24:11.194Z,13.56
2018-06-21T20:26:38.131Z,13.54
2018-06-21T20:29:09.755Z,13.53
2018-06-21T20:31:36.656Z,13.53
2018-06-21T20:34:03.628Z,13.55
2018-06-21T20:36:30.567Z,13.55
2018-06-21T20:38:57.491Z,13.52
2018-06-21T20:41:24.415Z,13.49
2018-06-21T20:43:51.738Z,13.45
2018-06-21T20:46:18.745Z,13.39
2018-06-21T20:48:45.823Z,13.34
2018-06-21T20:51:13.091Z,13.27
2018-06-21T20:53:40.019Z,13.23
2018-06-21T20:56:06.940Z,13.16
2018-06-21T20:58:33.882Z,13.10
2018-06-21T21:01:00.867Z,13.07
2018-06-21T21:03:27.786Z,13.00
2018-06-21T21:05:54.718Z,12.98
2018-06-21T21:08:21.615Z,13.00
2018-06-21T21:10:48.567Z,13.01
2018-06-21T21:13:15.499Z,13.06
2018-06-21T21:15:42.415Z,13.09
2018-06-21T21:18:09.335Z,13.09
2018-06-21T21:20:36.266Z,13.07
2018-06-21T21:23:03.233Z,13.03
2018-06-21T21:25:30.127Z,13.03
2018-06-21T21:27:57.076Z,13.04
2018-06-21T21:30:23.983Z,13.04
2018-06-21T21:32:50.952Z,13.02
2018-06-21T21:35:17.858Z,13.02
2018-06-21T21:37:44.775Z,13.02
2018-06-21T21:40:11.688Z,13.06
2018-06-21T21:42:38.827Z,13.07
2018-06-21T21:45:05.907Z,13.09
2018-06-21T21:47:32.831Z,13.06
2018-06-21T21:49:59.751Z,13.03
2018-06-21T21:52:26.703Z,12.97
2018-06-21T21:54:53.638Z,12.94
2018-06-21T21:57:20.654Z,12.91
2018-06-21T21:59:48.382Z,12.93
2018-06-21T22:02:15.675Z,12.97
2018-06-21T22:04:42.771Z,12.98
2018-06-21T22:07:09.700Z,12.96
2018-06-21T22:09:36.612Z,12.94
2018-06-21T22:12:03.556Z,12.93
2018-06-21T22:14:30.471Z,12.95
2018-06-21T22:16:57.399Z,12.93
2018-06-21T22:19:24.290Z,12.93
2018-06-21T22:21:51.203Z,12.93
2018-06-21T22:24:18.108Z,12.88
2018-06-21T22:26:45.044Z,12.82
2018-06-21T22:29:12.055Z,12.77
2018-06-21T22:31:38.975Z,12.65
2018-06-21T22:34:05.923Z,12.60
2018-06-21T22:36:32.853Z,12.56
2018-06-21T22:38:59.751Z,12.56
2018-06-21T22:41:26.687Z,12.56
2018-06-21T22:43:53.579Z,12.56
2018-06-21T22:46:20.538Z,12.53
2018-06-21T22:48:47.484Z,12.52
2018-06-21T22:51:14.396Z,12.53
2018-06-21T22:53:41.467Z,12.56
2018-06-21T22:56:08.407Z,12.54
2018-06-21T22:58:35.331Z,12.53
2018-06-21T23:01:02.323Z,12.55
2018-06-21T23:03:29.316Z,12.56
2018-06-21T23:05:56.401Z,12.51
2018-06-21T23:08:23.334Z,12.44
2018-06-21T23:10:50.283Z,12.39
2018-06-21T23:13:17.477Z,12.33
2018-06-21T23:15:45.141Z,12.23
2018-06-21T23:18:19.772Z,12.22
2018-06-21T23:20:46.815Z,12.22
2018-06-21T23:23:13.755Z,12.19
2018-06-21T23:25:40.687Z,12.21
2018-06-21T23:28:07.747Z,12.24
2018-06-21T23:30:34.785Z,12.24
2018-06-21T23:33:01.733Z,12.21
2018-06-21T23:35:28.647Z,12.16
2018-06-21T23:37:55.595Z,12.11
2018-06-21T23:40:22.507Z,12.09
2018-06-21T23:42:49.655Z,12.08
2018-06-21T23:45:16.555Z,12.07
2018-06-21T23:47:43.602Z,12.08
2018-06-21T23:50:10.567Z,12.11
2018-06-21T23:52:37.631Z,12.10
2018-06-21T23:55:04.783Z,12.10
2018-06-21T23:57:32.398Z,12.09
2018-06-21T23:59:59.356Z,12.14
